createdAt,value
2023-04-27T00:01:30.573Z,61.09
2023-04-27T00:06:35.215Z,61.32
2023-04-27T00:11:38.275Z,61.39
2023-04-27T00:16:41.440Z,61.53
2023-04-27T00:21:44.423Z,61.53
2023-04-27T00:26:47.441Z,61.38
2023-04-27T00:31:50.851Z,61.57
2023-04-27T00:36:53.899Z,61.51
2023-04-27T00:41:57.235Z,61.66
2023-04-27T00:47:00.157Z,61.74
2023-04-27T00:52:03.739Z,61.88
2023-04-27T00:57:06.791Z,62.07
2023-04-27T01:02:12.310Z,62.13
2023-04-27T01:07:15.284Z,62.21
2023-04-27T01:12:18.206Z,62.29
2023-04-27T01:17:22.074Z,62.27
2023-04-27T01:22:24.889Z,62.17
2023-04-27T01:27:27.871Z,62.10
2023-04-27T01:32:30.887Z,62.13
2023-04-27T01:37:34.394Z,67.00
2023-04-27T01:42:37.398Z,63.84
2023-04-27T01:47:41.037Z,54.47
2023-04-27T01:52:44.147Z,52.15
2023-04-27T01:57:47.230Z,53.18
2023-04-27T02:02:57.738Z,54.35
2023-04-27T02:08:00.964Z,55.38
2023-04-27T02:13:04.023Z,56.18
2023-04-27T02:18:07.254Z,56.75
2023-04-27T02:23:11.809Z,57.38
2023-04-27T02:28:14.810Z,58.10
2023-04-27T02:33:18.194Z,58.47
2023-04-27T02:38:21.285Z,58.88
2023-04-27T02:43:24.259Z,59.61
2023-04-27T02:48:27.194Z,60.29
2023-04-27T02:53:30.225Z,60.69
2023-04-27T02:58:33.310Z,61.22
2023-04-27T03:03:36.372Z,61.50
2023-04-27T03:08:39.471Z,61.85
2023-04-27T03:13:42.536Z,62.09
2023-04-27T03:18:45.602Z,67.22
2023-04-27T03:23:48.547Z,65.96
2023-04-27T03:28:51.493Z,54.64
2023-04-27T03:33:54.534Z,52.90
2023-04-27T03:38:57.536Z,53.68
2023-04-27T03:44:00.781Z,54.43
2023-04-27T03:49:03.755Z,55.67
2023-04-27T03:54:06.751Z,56.60
2023-04-27T03:59:09.799Z,56.93
2023-04-27T04:04:13.010Z,57.66
2023-04-27T04:09:16.642Z,57.81
2023-04-27T04:14:19.686Z,57.87
2023-04-27T04:19:22.655Z,57.53
2023-04-27T04:24:25.623Z,57.31
2023-04-27T04:29:28.854Z,56.58
2023-04-27T04:34:32.175Z,55.54
2023-04-27T04:39:35.174Z,53.13
2023-04-27T04:44:38.861Z,48.39
2023-04-27T04:49:41.821Z,42.62
2023-04-27T04:54:44.792Z,38.09
2023-04-27T04:59:47.751Z,34.80
2023-04-27T05:04:52.501Z,32.73
2023-04-27T05:09:55.937Z,30.61
2023-04-27T05:14:58.902Z,28.73
2023-04-27T05:20:02.139Z,27.94
2023-04-27T05:25:06.714Z,27.36
2023-04-27T05:30:11.232Z,27.09
2023-04-27T05:35:14.238Z,27.49
2023-04-27T05:40:17.243Z,29.17
2023-04-27T05:45:20.592Z,31.74
2023-04-27T05:50:24.029Z,34.52
2023-04-27T05:55:27.028Z,36.58
2023-04-27T06:00:30.019Z,37.99
2023-04-27T06:05:34.494Z,39.24
2023-04-27T06:10:37.710Z,40.93
2023-04-27T06:15:40.662Z,42.35
2023-04-27T06:20:43.651Z,43.17
2023-04-27T06:25:46.657Z,43.93
2023-04-27T06:30:49.707Z,44.43
2023-04-27T06:35:52.675Z,45.85
2023-04-27T06:40:55.720Z,45.58
2023-04-27T06:45:59.019Z,45.64
2023-04-27T06:51:02.053Z,46.43
2023-04-27T06:56:06.582Z,47.46
2023-04-27T07:01:09.579Z,47.41
2023-04-27T07:06:12.672Z,46.59
2023-04-27T07:11:16.558Z,46.95
2023-04-27T07:16:19.997Z,47.16
2023-04-27T07:21:22.955Z,47.52
2023-04-27T07:26:32.126Z,48.42
2023-04-27T07:31:35.189Z,47.34
2023-04-27T07:36:38.330Z,46.62
2023-04-27T07:41:41.372Z,47.17
2023-04-27T07:46:44.403Z,47.16
2023-04-27T07:51:47.333Z,47.67
2023-04-27T07:56:50.328Z,47.32
2023-04-27T08:01:55.683Z,45.81
2023-04-27T08:07:03.368Z,46.47
2023-04-27T08:12:06.714Z,45.60
2023-04-27T08:17:09.688Z,45.67
2023-04-27T08:22:12.735Z,45.22
2023-04-27T08:27:15.886Z,45.60
2023-04-27T08:32:18.858Z,45.87
2023-04-27T08:37:21.974Z,45.75
2023-04-27T08:42:24.941Z,44.65
2023-04-27T08:47:39.093Z,44.75
2023-04-27T08:52:49.760Z,45.21
2023-04-27T08:57:57.873Z,46.31
2023-04-27T09:03:04.325Z,45.76
2023-04-27T09:08:08.424Z,45.82
2023-04-27T09:13:11.661Z,44.91
2023-04-27T09:18:24.081Z,43.81
2023-04-27T09:23:36.105Z,44.89
2023-04-27T09:28:40.496Z,43.50
2023-04-27T09:33:45.875Z,44.00
2023-04-27T09:38:52.468Z,44.25
2023-04-27T09:43:57.827Z,42.92
2023-04-27T09:49:05.112Z,42.96
2023-04-27T09:54:11.232Z,43.18
2023-04-27T09:59:48.754Z,43.50
2023-04-27T10:05:22.501Z,43.99
2023-04-27T10:10:25.624Z,45.45
2023-04-27T10:15:30.220Z,45.47
2023-04-27T10:20:38.216Z,45.26
2023-04-27T10:25:42.165Z,45.03
2023-04-27T10:30:49.091Z,44.16
2023-04-27T10:35:59.172Z,44.85
2023-04-27T10:41:05.779Z,44.94
2023-04-27T10:46:14.697Z,45.32
2023-04-27T10:51:18.128Z,45.61
2023-04-27T10:56:21.191Z,45.31
2023-04-27T11:01:29.618Z,45.86
2023-04-27T11:06:42.128Z,46.06
2023-04-27T11:11:46.334Z,45.57
2023-04-27T11:16:49.550Z,45.85
2023-04-27T11:21:52.546Z,46.86
2023-04-27T11:26:55.727Z,47.45
2023-04-27T11:31:59.005Z,47.81
2023-04-27T11:37:18.080Z,48.03
2023-04-27T11:42:31.715Z,48.12
2023-04-27T11:47:41.054Z,48.15
2023-04-27T11:52:49.567Z,48.42
2023-04-27T11:57:59.121Z,48.38
2023-04-27T12:03:03.597Z,48.50
2023-04-27T12:08:06.854Z,48.64
2023-04-27T12:13:09.792Z,49.05
2023-04-27T12:18:12.873Z,49.02
2023-04-27T12:23:15.910Z,49.40
2023-04-27T12:28:20.509Z,49.54
2023-04-27T12:33:23.635Z,49.76
2023-04-27T12:38:27.138Z,49.88
2023-04-27T12:43:30.120Z,50.16
2023-04-27T12:48:33.728Z,49.94
2023-04-27T12:53:36.715Z,50.11
2023-04-27T12:58:40.062Z,50.06
2023-04-27T13:03:48.023Z,49.74
2023-04-27T13:08:51.215Z,49.64
2023-04-27T13:13:55.290Z,49.31
2023-04-27T13:18:58.540Z,48.94
2023-04-27T13:24:01.504Z,48.95
2023-04-27T13:29:04.926Z,49.06
2023-04-27T13:34:07.984Z,49.53
2023-04-27T13:39:11.102Z,49.50
2023-04-27T13:44:14.270Z,49.76
2023-04-27T13:49:17.446Z,50.04
2023-04-27T13:54:21.644Z,50.42
2023-04-27T13:59:25.063Z,49.16
2023-04-27T14:04:28.072Z,48.18
2023-04-27T14:09:31.065Z,47.99
2023-04-27T14:14:35.874Z,47.70
2023-04-27T14:19:38.848Z,46.75
2023-04-27T14:24:41.794Z,46.44
2023-04-27T14:29:44.770Z,46.71
2023-04-27T14:34:47.729Z,46.99
2023-04-27T14:39:50.657Z,47.19
2023-04-27T14:44:53.589Z,47.10
2023-04-27T14:49:56.538Z,48.11
2023-04-27T14:54:59.485Z,47.63
2023-04-27T15:00:05.070Z,47.56
2023-04-27T15:05:09.128Z,47.90
2023-04-27T15:10:12.125Z,47.47
2023-04-27T15:15:15.347Z,47.85
2023-04-27T15:20:18.732Z,48.07
2023-04-27T15:25:21.945Z,48.41
2023-04-27T15:30:24.857Z,48.31
2023-04-27T15:35:27.817Z,48.25
2023-04-27T15:40:31.326Z,47.98
2023-04-27T15:45:34.416Z,47.62
2023-04-27T15:50:37.688Z,47.57
2023-04-27T15:55:40.816Z,48.39
2023-04-27T16:00:44.154Z,48.36
2023-04-27T16:05:51.095Z,47.83
2023-04-27T16:10:54.334Z,47.34
2023-04-27T16:15:57.417Z,47.27
2023-04-27T16:21:00.524Z,47.39
2023-04-27T16:26:03.506Z,47.24
2023-04-27T16:31:06.498Z,47.49
2023-04-27T16:36:11.314Z,47.53
2023-04-27T16:41:14.326Z,47.83
2023-04-27T16:46:17.577Z,47.71
2023-04-27T16:51:20.549Z,47.71
2023-04-27T16:56:28.830Z,47.74
2023-04-27T17:01:31.919Z,47.78
2023-04-27T17:06:35.032Z,47.93
2023-04-27T17:11:38.032Z,48.49
2023-04-27T17:16:41.154Z,49.13
2023-04-27T17:21:44.122Z,49.19
2023-04-27T17:26:48.359Z,49.39
2023-04-27T17:31:51.306Z,49.72
2023-04-27T17:36:54.405Z,50.18
2023-04-27T17:41:57.553Z,51.01
2023-04-27T17:47:00.904Z,51.55
2023-04-27T17:52:04.211Z,52.15
2023-04-27T17:57:07.200Z,52.61
2023-04-27T18:02:10.168Z,53.14
2023-04-27T18:07:13.358Z,53.72
2023-04-27T18:12:16.549Z,54.28
2023-04-27T18:17:19.507Z,54.16
2023-04-27T18:22:23.081Z,54.08
2023-04-27T18:27:27.149Z,54.56
2023-04-27T18:32:30.175Z,53.78
2023-04-27T18:37:33.363Z,53.39
2023-04-27T18:42:36.348Z,53.22
2023-04-27T18:47:39.972Z,53.51
2023-04-27T18:52:42.855Z,53.86
2023-04-27T18:57:45.995Z,53.92
2023-04-27T19:02:49.043Z,55.32
2023-04-27T19:07:52.080Z,55.71
2023-04-27T19:12:56.103Z,54.86
2023-04-27T19:18:07.088Z,54.75
2023-04-27T19:23:13.698Z,55.98
2023-04-27T19:28:18.889Z,56.16
2023-04-27T19:33:21.950Z,56.43
2023-04-27T19:38:25.688Z,56.64
2023-04-27T19:43:29.179Z,57.07
2023-04-27T19:48:32.127Z,57.11
2023-04-27T19:53:35.122Z,56.96
2023-04-27T19:58:38.070Z,57.01
2023-04-27T20:03:41.359Z,57.34
2023-04-27T20:08:44.425Z,57.35
2023-04-27T20:13:47.796Z,57.53
2023-04-27T20:18:51.825Z,57.70
2023-04-27T20:23:54.923Z,57.81
2023-04-27T20:28:57.832Z,58.09
2023-04-27T20:34:00.996Z,58.04
2023-04-27T20:39:05.593Z,58.14
2023-04-27T20:44:09.494Z,58.31
2023-04-27T20:49:13.604Z,58.41
2023-04-27T20:54:19.874Z,58.32
2023-04-27T20:59:22.824Z,58.50
2023-04-27T21:04:26.098Z,58.75
2023-04-27T21:09:29.125Z,58.60
2023-04-27T21:14:33.720Z,58.62
2023-04-27T21:19:36.700Z,59.20
2023-04-27T21:24:39.624Z,59.24
2023-04-27T21:29:42.582Z,59.54
2023-04-27T21:34:45.582Z,60.05
2023-04-27T21:39:48.511Z,60.01
2023-04-27T21:44:51.500Z,60.18
2023-04-27T21:49:54.451Z,60.11
2023-04-27T21:54:57.432Z,60.65
2023-04-27T22:00:00.671Z,60.99
2023-04-27T22:05:04.084Z,60.70
2023-04-27T22:10:07.697Z,60.65
2023-04-27T22:15:11.150Z,60.94
2023-04-27T22:20:14.585Z,61.18
2023-04-27T22:25:18.955Z,61.00
2023-04-27T22:30:21.961Z,60.77
2023-04-27T22:35:27.643Z,61.26
2023-04-27T22:40:31.009Z,61.72
2023-04-27T22:45:34.916Z,61.99
2023-04-27T22:50:38.628Z,62.08
2023-04-27T22:55:41.570Z,62.19
2023-04-27T23:00:44.567Z,62.22
2023-04-27T23:05:47.793Z,67.76
2023-04-27T23:10:53.346Z,61.16
2023-04-27T23:15:56.350Z,50.04
2023-04-27T23:20:59.283Z,50.41
2023-04-27T23:26:02.544Z,52.27
2023-04-27T23:31:05.638Z,53.38
2023-04-27T23:36:08.841Z,54.80
2023-04-27T23:41:12.151Z,55.74
2023-04-27T23:46:15.142Z,56.57
2023-04-27T23:51:18.113Z,57.07
2023-04-27T23:56:21.295Z,57.77
